createdAt,value
2017-08-23T00:00:36.893Z,13.37
2017-08-23T00:03:04.394Z,12.23
2017-08-23T00:05:31.931Z,13.03
2017-08-23T00:07:59.448Z,16.00
2017-08-23T00:10:26.994Z,12.30
2017-08-23T00:12:54.544Z,12.20
2017-08-23T00:15:22.107Z,11.60
2017-08-23T00:17:49.643Z,11.90
2017-08-23T00:20:18.304Z,11.77
2017-08-23T00:22:46.879Z,12.03
2017-08-23T00:25:14.479Z,12.43
2017-08-23T00:27:42.024Z,10.33
2017-08-23T00:30:09.553Z,10.80
2017-08-23T00:32:37.111Z,10.83
2017-08-23T00:35:04.632Z,11.40
2017-08-23T00:37:32.143Z,12.20
2017-08-23T00:39:59.686Z,10.67
2017-08-23T00:42:27.217Z,10.20
2017-08-23T00:44:54.759Z,11.40
2017-08-23T00:47:22.275Z,13.53
2017-08-23T00:49:49.836Z,12.90
2017-08-23T00:52:18.539Z,13.10
2017-08-23T00:54:46.549Z,10.10
2017-08-23T00:57:14.079Z,11.10
2017-08-23T00:59:41.604Z,12.83
2017-08-23T01:02:09.138Z,10.80
2017-08-23T01:04:36.668Z,13.87
2017-08-23T01:07:04.215Z,10.63
2017-08-23T01:09:31.726Z,9.73
2017-08-23T01:11:59.246Z,10.00
2017-08-23T01:14:26.780Z,10.37
2017-08-23T01:16:54.292Z,11.50
2017-08-23T01:19:21.824Z,9.40
2017-08-23T01:21:49.716Z,10.30
2017-08-23T01:24:18.253Z,12.70
2017-08-23T01:26:46.157Z,11.27
2017-08-23T01:29:13.665Z,9.10
2017-08-23T01:31:41.181Z,11.47
2017-08-23T01:34:08.677Z,8.93
2017-08-23T01:36:36.201Z,10.27
2017-08-23T01:39:03.724Z,9.33
2017-08-23T01:41:31.279Z,9.53
2017-08-23T01:43:58.791Z,9.30
2017-08-23T01:46:26.301Z,10.30
2017-08-23T01:48:53.831Z,8.20
2017-08-23T01:51:21.339Z,9.03
2017-08-23T01:53:48.887Z,9.87
2017-08-23T01:56:16.940Z,9.07
2017-08-23T01:58:44.451Z,9.10
2017-08-23T02:01:11.968Z,11.80
2017-08-23T02:03:39.503Z,8.97
2017-08-23T02:06:06.993Z,8.07
2017-08-23T02:08:34.492Z,8.83
2017-08-23T02:11:02.014Z,8.07
2017-08-23T02:13:29.531Z,13.50
2017-08-23T02:15:57.055Z,8.00
2017-08-23T02:18:24.558Z,7.90
2017-08-23T02:20:52.103Z,9.93
2017-08-23T02:23:19.609Z,8.70
2017-08-23T02:25:48.260Z,8.00
2017-08-23T02:28:16.184Z,9.30
2017-08-23T02:30:43.702Z,8.10
2017-08-23T02:33:11.240Z,12.30
2017-08-23T02:35:38.734Z,9.80
2017-08-23T02:38:06.273Z,7.50
2017-08-23T02:40:33.770Z,8.77
2017-08-23T02:43:01.314Z,10.50
2017-08-23T02:45:28.842Z,8.83
2017-08-23T02:47:56.347Z,9.40
2017-08-23T02:50:23.879Z,8.40
2017-08-23T02:52:51.391Z,8.53
2017-08-23T02:55:18.920Z,8.80
2017-08-23T02:57:47.396Z,9.43
2017-08-23T03:00:14.927Z,6.97
2017-08-23T03:02:42.462Z,9.30
2017-08-23T03:05:09.971Z,8.37
2017-08-23T03:07:37.512Z,9.47
2017-08-23T03:10:05.011Z,7.67
2017-08-23T03:12:32.505Z,8.63
2017-08-23T03:15:00.025Z,7.60
2017-08-23T03:17:27.531Z,7.47
2017-08-23T03:19:55.052Z,8.07
2017-08-23T03:22:22.563Z,7.53
2017-08-23T03:24:50.092Z,8.10
2017-08-23T03:27:18.723Z,9.70
2017-08-23T03:29:47.640Z,8.17
2017-08-23T03:32:15.161Z,7.43
2017-08-23T03:34:42.670Z,7.97
2017-08-23T03:37:10.206Z,9.23
2017-08-23T03:39:37.719Z,7.40
2017-08-23T03:42:05.246Z,7.43
2017-08-23T03:44:32.749Z,10.30
2017-08-23T03:47:00.282Z,8.37
2017-08-23T03:49:27.800Z,7.57
2017-08-23T03:51:55.293Z,7.80
2017-08-23T03:54:22.809Z,7.60
2017-08-23T03:56:50.302Z,8.87
2017-08-23T03:59:17.862Z,7.10
2017-08-23T04:01:45.370Z,9.73
2017-08-23T04:04:12.871Z,7.67
2017-08-23T04:06:40.415Z,7.53
2017-08-23T04:09:07.948Z,10.00
2017-08-23T04:11:35.467Z,8.70
2017-08-23T04:14:02.969Z,7.37
2017-08-23T04:16:30.489Z,7.77
2017-08-23T04:18:57.985Z,14.73
2017-08-23T04:21:25.504Z,7.30
2017-08-23T04:23:53.092Z,6.57
2017-08-23T04:26:20.596Z,6.67
2017-08-23T04:28:48.428Z,11.17
2017-08-23T04:31:17.413Z,7.23
2017-08-23T04:33:44.943Z,9.83
2017-08-23T04:36:12.442Z,7.23
2017-08-23T04:38:39.960Z,8.00
2017-08-23T04:41:07.489Z,10.83
2017-08-23T04:43:34.981Z,7.70
2017-08-23T04:46:02.505Z,7.70
2017-08-23T04:48:30.023Z,7.77
2017-08-23T04:50:57.541Z,6.87
2017-08-23T04:53:25.047Z,7.20
2017-08-23T04:55:52.551Z,7.07
2017-08-23T04:58:20.076Z,6.87
2017-08-23T05:00:48.228Z,6.67
2017-08-23T05:03:16.196Z,7.33
2017-08-23T05:05:43.690Z,6.50
2017-08-23T05:08:11.218Z,6.73
2017-08-23T05:10:38.713Z,7.03
2017-08-23T05:13:06.219Z,6.80
2017-08-23T05:15:33.736Z,7.10
2017-08-23T05:18:01.252Z,7.00
2017-08-23T05:20:28.820Z,6.70
2017-08-23T05:22:56.322Z,6.80
2017-08-23T05:25:23.842Z,8.70
2017-08-23T05:27:51.349Z,6.40
2017-08-23T05:30:18.847Z,7.10
2017-08-23T05:32:47.277Z,8.03
2017-08-23T05:35:14.782Z,8.53
2017-08-23T05:37:42.313Z,9.10
2017-08-23T05:40:09.811Z,6.57
2017-08-23T05:42:37.397Z,10.40
2017-08-23T05:45:04.922Z,6.70
2017-08-23T05:47:32.448Z,6.50
2017-08-23T05:49:59.973Z,10.73
2017-08-23T05:52:27.477Z,7.07
2017-08-23T05:54:54.992Z,6.73
2017-08-23T05:57:22.498Z,7.60
2017-08-23T05:59:50.026Z,6.20
2017-08-23T06:02:18.095Z,7.80
2017-08-23T06:04:46.285Z,7.17
2017-08-23T06:07:13.802Z,8.90
2017-08-23T06:09:41.314Z,6.03
2017-08-23T06:12:08.839Z,6.30
2017-08-23T06:14:36.330Z,6.07
2017-08-23T06:17:03.875Z,6.27
2017-08-23T06:19:31.374Z,8.13
2017-08-23T06:21:58.885Z,6.60
2017-08-23T06:24:26.416Z,6.60
2017-08-23T06:26:53.917Z,7.87
2017-08-23T06:29:21.461Z,6.47
2017-08-23T06:31:48.968Z,6.13
2017-08-23T06:34:17.503Z,5.63
2017-08-23T06:36:45.062Z,6.27
2017-08-23T06:39:12.596Z,6.97
2017-08-23T06:41:40.121Z,7.00
2017-08-23T06:44:07.647Z,7.80
2017-08-23T06:46:35.184Z,6.53
2017-08-23T06:49:02.698Z,9.47
2017-08-23T06:51:30.256Z,7.37
2017-08-23T06:53:57.757Z,6.10
2017-08-23T06:56:25.276Z,8.63
2017-08-23T06:58:52.809Z,9.67
2017-08-23T07:01:20.338Z,5.90
2017-08-23T07:03:48.023Z,5.77
2017-08-23T07:06:16.790Z,6.70
2017-08-23T07:08:44.319Z,6.80
2017-08-23T07:11:11.826Z,7.10
2017-08-23T07:13:39.343Z,8.77
2017-08-23T07:16:06.898Z,5.20
2017-08-23T07:18:34.416Z,6.97
2017-08-23T07:21:01.964Z,5.30
2017-08-23T07:23:29.488Z,6.57
2017-08-23T07:25:57.043Z,5.70
2017-08-23T07:28:24.571Z,5.50
2017-08-23T07:30:52.363Z,5.23
2017-08-23T07:33:19.896Z,5.77
2017-08-23T07:35:48.304Z,5.90
2017-08-23T07:38:16.379Z,6.00
2017-08-23T07:40:43.939Z,7.50
2017-08-23T07:43:11.453Z,8.23
2017-08-23T07:45:38.969Z,4.97
2017-08-23T07:48:06.483Z,5.17
2017-08-23T07:50:34.019Z,7.33
2017-08-23T07:53:01.528Z,5.03
2017-08-23T07:55:29.082Z,5.37
2017-08-23T07:57:56.631Z,4.73
2017-08-23T08:00:24.175Z,4.03
2017-08-23T08:02:52.079Z,6.60
2017-08-23T08:05:19.590Z,9.47
2017-08-23T08:07:47.833Z,3.80
2017-08-23T08:10:15.376Z,4.90
2017-08-23T08:12:42.904Z,4.43
2017-08-23T08:15:10.405Z,6.47
2017-08-23T08:17:37.932Z,7.43
2017-08-23T08:20:05.443Z,4.70
2017-08-23T08:22:33.007Z,8.67
2017-08-23T08:25:00.503Z,4.07
2017-08-23T08:27:28.018Z,6.03
2017-08-23T08:29:55.547Z,5.53
2017-08-23T08:32:23.067Z,4.93
2017-08-23T08:34:50.610Z,7.17
2017-08-23T08:37:18.117Z,10.30
2017-08-23T08:39:46.482Z,6.37
2017-08-23T08:42:14.005Z,5.10
2017-08-23T08:44:41.549Z,4.90
2017-08-23T08:47:09.062Z,7.10
2017-08-23T08:49:36.568Z,4.07
2017-08-23T08:52:04.094Z,9.03
2017-08-23T08:54:31.617Z,5.93
2017-08-23T08:56:59.151Z,6.10
2017-08-23T08:59:26.666Z,4.47
2017-08-23T09:01:54.268Z,4.10
2017-08-23T09:04:21.810Z,5.70
2017-08-23T09:06:49.369Z,6.83
2017-08-23T09:09:16.944Z,3.40
2017-08-23T09:11:44.509Z,7.90
2017-08-23T09:14:12.069Z,5.00
2017-08-23T09:16:39.584Z,3.70
2017-08-23T09:19:07.178Z,4.13
2017-08-23T09:21:34.759Z,4.43
2017-08-23T09:24:02.300Z,8.57
2017-08-23T09:26:29.820Z,5.40
2017-08-23T09:28:57.361Z,5.60
2017-08-23T09:31:24.879Z,6.00
2017-08-23T09:33:52.396Z,4.10
2017-08-23T09:36:19.947Z,6.80
2017-08-23T09:38:48.151Z,6.67
2017-08-23T09:41:16.388Z,4.93
2017-08-23T09:43:43.911Z,3.73
2017-08-23T09:46:11.451Z,5.53
2017-08-23T09:48:38.989Z,4.70
2017-08-23T09:51:06.554Z,6.10
2017-08-23T09:53:34.076Z,4.70
2017-08-23T09:56:01.581Z,5.40
2017-08-23T09:58:29.119Z,3.43
2017-08-23T10:00:56.720Z,6.40
2017-08-23T10:03:24.277Z,5.90
2017-08-23T10:05:51.789Z,3.73
2017-08-23T10:08:20.338Z,5.20
2017-08-23T10:10:49.109Z,5.70
2017-08-23T10:13:17.528Z,5.83
2017-08-23T10:15:45.042Z,7.40
2017-08-23T10:18:12.554Z,4.87
2017-08-23T10:20:40.098Z,3.87
2017-08-23T10:23:07.611Z,5.17
2017-08-23T10:25:35.699Z,5.60
2017-08-23T10:28:03.234Z,4.27
2017-08-23T10:30:30.766Z,4.93
2017-08-23T10:32:58.265Z,4.23
2017-08-23T10:35:25.801Z,4.63
2017-08-23T10:37:53.326Z,4.77
2017-08-23T10:40:20.859Z,5.37
2017-08-23T10:42:48.383Z,4.23
2017-08-23T10:45:16.410Z,4.40
2017-08-23T10:47:43.947Z,5.67
2017-08-23T10:50:11.458Z,5.10
2017-08-23T10:52:39.030Z,4.93
2017-08-23T10:55:06.560Z,7.10
2017-08-23T10:57:34.093Z,4.87
2017-08-23T11:00:01.649Z,3.40
2017-08-23T11:02:29.163Z,7.37
2017-08-23T11:04:56.695Z,4.53
2017-08-23T11:07:24.199Z,3.70
2017-08-23T11:09:51.762Z,3.47
2017-08-23T11:12:19.262Z,5.13
2017-08-23T11:14:47.802Z,8.80
2017-08-23T11:17:15.325Z,7.83
2017-08-23T11:19:42.873Z,3.50
2017-08-23T11:22:11.546Z,5.73
2017-08-23T11:24:39.078Z,5.87
2017-08-23T11:27:06.646Z,3.37
2017-08-23T11:29:34.162Z,3.60
2017-08-23T11:32:01.698Z,5.27
2017-08-23T11:34:29.232Z,5.33
2017-08-23T11:36:56.770Z,7.10
2017-08-23T11:39:24.297Z,8.37
2017-08-23T11:41:51.816Z,7.70
2017-08-23T11:44:19.339Z,7.00
2017-08-23T11:46:46.850Z,6.47
2017-08-23T11:49:14.372Z,4.03
2017-08-23T11:51:41.899Z,4.60
2017-08-23T11:54:10.780Z,5.07
2017-08-23T11:56:38.291Z,4.53
2017-08-23T11:59:05.800Z,4.70
2017-08-23T12:01:33.327Z,4.50
2017-08-23T12:04:00.835Z,4.93
2017-08-23T12:06:28.410Z,6.07
2017-08-23T12:08:55.960Z,3.70
2017-08-23T12:11:23.473Z,4.20
2017-08-23T12:13:50.992Z,4.10
2017-08-23T12:16:18.526Z,4.43
2017-08-23T12:18:46.440Z,3.40
2017-08-23T12:21:13.954Z,4.63
2017-08-23T12:23:41.492Z,5.37
2017-08-23T12:26:09.015Z,3.23
2017-08-23T12:28:36.548Z,4.90
2017-08-23T12:31:04.068Z,3.17
2017-08-23T12:33:31.598Z,3.10
2017-08-23T12:35:59.117Z,5.50
2017-08-23T12:38:26.638Z,3.83
2017-08-23T12:40:54.151Z,4.80
2017-08-23T12:43:21.687Z,6.27
2017-08-23T12:45:49.235Z,3.60
2017-08-23T12:48:17.305Z,4.67
2017-08-23T12:50:44.839Z,3.97
2017-08-23T12:53:12.344Z,3.80
2017-08-23T12:55:39.872Z,4.93
2017-08-23T12:58:07.389Z,3.43
2017-08-23T13:00:34.933Z,5.13
2017-08-23T13:03:02.429Z,4.90
2017-08-23T13:05:29.938Z,4.00
2017-08-23T13:07:57.453Z,3.50
2017-08-23T13:10:24.955Z,4.50
2017-08-23T13:12:52.485Z,5.77
2017-08-23T13:15:19.990Z,3.50
2017-08-23T13:17:48.415Z,2.93
2017-08-23T13:20:16.772Z,4.77
2017-08-23T13:22:44.968Z,4.07
2017-08-23T13:25:12.472Z,4.67
2017-08-23T13:27:39.980Z,3.70
2017-08-23T13:30:07.504Z,2.80
2017-08-23T13:32:35.015Z,4.60
2017-08-23T13:35:02.552Z,6.50
2017-08-23T13:37:30.053Z,4.87
2017-08-23T13:39:57.595Z,3.80
2017-08-23T13:42:25.103Z,5.40
2017-08-23T13:44:52.616Z,3.67
2017-08-23T13:47:20.147Z,3.80
2017-08-23T13:49:48.791Z,4.07
2017-08-23T13:52:16.921Z,4.37
2017-08-23T13:54:44.437Z,6.37
2017-08-23T13:57:11.952Z,3.83
2017-08-23T13:59:39.464Z,5.83
2017-08-23T14:02:07.005Z,4.97
2017-08-23T14:04:35.280Z,3.70
2017-08-23T14:07:02.786Z,7.20
2017-08-23T14:09:30.363Z,4.60
2017-08-23T14:11:57.872Z,4.20
2017-08-23T14:14:25.408Z,4.10
2017-08-23T14:16:52.924Z,3.50
2017-08-23T14:19:20.433Z,6.00
2017-08-23T14:21:48.173Z,4.07
2017-08-23T14:24:15.704Z,4.30
2017-08-23T14:26:43.214Z,4.30
2017-08-23T14:29:10.724Z,4.70
2017-08-23T14:31:38.242Z,6.10
2017-08-23T14:34:05.756Z,3.67
2017-08-23T14:36:33.295Z,5.90
2017-08-23T14:39:00.807Z,3.90
2017-08-23T14:41:28.330Z,4.30
2017-08-23T14:43:55.839Z,4.93
2017-08-23T14:46:23.412Z,4.30
2017-08-23T14:48:50.915Z,6.90
2017-08-23T14:51:18.424Z,6.13
2017-08-23T14:53:46.647Z,7.77
2017-08-23T14:56:14.200Z,5.33
2017-08-23T14:58:41.742Z,6.03
2017-08-23T15:01:09.261Z,3.60
2017-08-23T15:03:36.781Z,3.90
2017-08-23T15:06:04.333Z,5.10
2017-08-23T15:08:31.878Z,3.97
2017-08-23T15:10:59.382Z,4.50
2017-08-23T15:13:26.910Z,4.47
2017-08-23T15:15:54.594Z,5.30
2017-08-23T15:18:22.125Z,4.60
2017-08-23T15:20:49.683Z,4.00
2017-08-23T15:23:17.199Z,4.23
2017-08-23T15:25:44.752Z,5.80
2017-08-23T15:28:12.406Z,7.10
2017-08-23T15:30:39.959Z,4.27
2017-08-23T15:33:07.605Z,4.47
2017-08-23T15:35:35.189Z,5.00
2017-08-23T15:38:02.933Z,4.23
2017-08-23T15:40:30.679Z,5.27
2017-08-23T15:42:58.472Z,4.70
2017-08-23T15:45:26.040Z,3.50
2017-08-23T15:47:53.582Z,4.50
2017-08-23T15:50:22.487Z,3.80
2017-08-23T15:52:50.089Z,4.07
2017-08-23T15:55:18.264Z,6.37
2017-08-23T15:57:45.784Z,7.77
2017-08-23T16:00:13.366Z,5.87
2017-08-23T16:02:40.933Z,5.47
2017-08-23T16:05:08.517Z,15.60
2017-08-23T16:07:36.056Z,5.47
2017-08-23T16:10:03.586Z,5.90
2017-08-23T16:12:31.092Z,3.73
2017-08-23T16:14:58.613Z,6.97
2017-08-23T16:17:26.131Z,4.77
2017-08-23T16:19:53.761Z,4.30
2017-08-23T16:22:21.317Z,4.97
2017-08-23T16:24:48.837Z,5.30
2017-08-23T16:27:17.528Z,5.67
2017-08-23T16:29:45.083Z,6.13
2017-08-23T16:32:12.585Z,5.43
2017-08-23T16:34:40.146Z,8.30
2017-08-23T16:37:07.653Z,4.37
2017-08-23T16:39:35.175Z,5.27
2017-08-23T16:42:02.690Z,5.40
2017-08-23T16:44:30.469Z,8.10
2017-08-23T16:46:58.937Z,5.10
2017-08-23T16:49:26.448Z,5.80
2017-08-23T16:51:53.978Z,8.37
2017-08-23T16:54:21.526Z,5.90
2017-08-23T16:56:49.055Z,7.40
2017-08-23T16:59:17.054Z,5.70
2017-08-23T17:01:44.590Z,5.00
2017-08-23T17:04:12.095Z,4.30
2017-08-23T17:06:40.642Z,4.60
2017-08-23T17:09:08.174Z,8.43
2017-08-23T17:11:35.685Z,7.13
2017-08-23T17:14:03.216Z,8.00
2017-08-23T17:16:30.770Z,5.83
2017-08-23T17:18:58.311Z,5.27
2017-08-23T17:21:25.889Z,6.00
2017-08-23T17:23:53.516Z,6.10
2017-08-23T17:26:21.054Z,5.00
2017-08-23T17:28:48.614Z,5.10
2017-08-23T17:31:16.621Z,5.40
2017-08-23T17:33:44.177Z,5.67
2017-08-23T17:36:11.729Z,4.90
2017-08-23T17:38:39.252Z,5.90
2017-08-23T17:41:06.808Z,6.70
2017-08-23T17:43:34.363Z,7.30
2017-08-23T17:46:01.912Z,12.83
2017-08-23T17:48:29.413Z,6.63
2017-08-23T17:50:56.959Z,6.03
2017-08-23T17:53:24.463Z,7.63
2017-08-23T17:55:51.970Z,5.53
2017-08-23T17:58:19.494Z,6.60
2017-08-23T18:00:47.973Z,7.63
2017-08-23T18:03:15.510Z,5.57
2017-08-23T18:05:43.025Z,6.00
2017-08-23T18:08:10.558Z,4.40
2017-08-23T18:10:38.100Z,5.17
2017-08-23T18:13:05.651Z,4.70
2017-08-23T18:15:33.150Z,5.87
2017-08-23T18:18:00.694Z,4.20
2017-08-23T18:20:28.233Z,6.40
2017-08-23T18:22:55.837Z,6.40
2017-08-23T18:25:23.356Z,7.17
2017-08-23T18:27:50.887Z,9.70
2017-08-23T18:30:18.406Z,6.17
2017-08-23T18:32:46.692Z,6.93
2017-08-23T18:35:14.297Z,13.50
2017-08-23T18:37:41.815Z,8.90
2017-08-23T18:40:09.427Z,6.17
2017-08-23T18:42:36.992Z,6.43
2017-08-23T18:45:04.566Z,6.90
2017-08-23T18:47:32.178Z,7.43
2017-08-23T18:49:59.720Z,4.20
2017-08-23T18:52:27.330Z,7.07
2017-08-23T18:54:54.831Z,8.17
2017-08-23T18:57:22.358Z,9.40
2017-08-23T18:59:49.875Z,5.87
2017-08-23T19:02:18.765Z,4.30
2017-08-23T19:04:47.423Z,5.23
2017-08-23T19:07:14.937Z,6.20
2017-08-23T19:09:42.513Z,5.70
2017-08-23T19:12:10.026Z,6.83
2017-08-23T19:14:37.671Z,5.80
2017-08-23T19:17:05.185Z,7.60
2017-08-23T19:19:32.708Z,8.60
2017-08-23T19:22:00.249Z,5.33
2017-08-23T19:24:27.969Z,5.60
2017-08-23T19:26:55.489Z,6.60
2017-08-23T19:29:23.138Z,5.07
2017-08-23T19:31:50.684Z,6.50
2017-08-23T19:34:19.131Z,8.87
2017-08-23T19:36:46.731Z,9.10
2017-08-23T19:39:14.369Z,8.87
2017-08-23T19:41:41.918Z,6.17
2017-08-23T19:44:09.473Z,6.90
2017-08-23T19:46:37.034Z,6.43
2017-08-23T19:49:05.072Z,9.23
2017-08-23T19:51:32.621Z,5.40
2017-08-23T19:54:01.287Z,6.90
2017-08-23T19:56:28.918Z,7.37
2017-08-23T19:58:56.499Z,6.17
2017-08-23T20:01:24.109Z,5.87
2017-08-23T20:03:51.658Z,7.07
2017-08-23T20:06:19.293Z,7.00
2017-08-23T20:08:47.767Z,7.10
2017-08-23T20:11:15.645Z,7.53
2017-08-23T20:13:43.157Z,5.47
2017-08-23T20:16:11.097Z,9.37
2017-08-23T20:18:38.641Z,5.93
2017-08-23T20:21:06.209Z,8.43
2017-08-23T20:23:33.950Z,5.70
2017-08-23T20:26:01.503Z,5.60
2017-08-23T20:28:29.242Z,5.27
2017-08-23T20:30:57.081Z,5.27
2017-08-23T20:33:24.637Z,6.53
2017-08-23T20:35:52.581Z,5.87
2017-08-23T20:38:20.155Z,5.47
2017-08-23T20:40:47.838Z,6.23
2017-08-23T20:43:15.409Z,5.70
2017-08-23T20:45:42.908Z,9.07
2017-08-23T20:48:10.402Z,7.23
2017-08-23T20:50:37.913Z,7.17
2017-08-23T20:53:05.427Z,6.73
2017-08-23T20:55:32.943Z,4.90
2017-08-23T20:58:00.525Z,5.87
2017-08-23T21:00:28.057Z,5.87
2017-08-23T21:02:55.604Z,5.70
2017-08-23T21:05:23.101Z,5.83
2017-08-23T21:07:50.625Z,6.77
2017-08-23T21:10:18.854Z,7.03
2017-08-23T21:12:46.866Z,5.90
2017-08-23T21:15:14.362Z,4.93
2017-08-23T21:17:41.896Z,6.00
2017-08-23T21:20:09.389Z,5.30
2017-08-23T21:22:36.882Z,4.60
2017-08-23T21:25:04.395Z,7.03
2017-08-23T21:27:31.935Z,8.17
2017-08-23T21:29:59.463Z,5.70
2017-08-23T21:32:26.956Z,6.43
2017-08-23T21:34:54.469Z,5.70
2017-08-23T21:37:21.974Z,6.67
2017-08-23T21:39:50.011Z,5.60
2017-08-23T21:42:18.063Z,7.70
2017-08-23T21:44:45.595Z,5.60
2017-08-23T21:47:13.117Z,6.27
2017-08-23T21:49:40.649Z,5.67
2017-08-23T21:52:08.175Z,5.37
2017-08-23T21:54:36.014Z,7.20
2017-08-23T21:57:03.563Z,6.60
2017-08-23T21:59:31.067Z,9.50
2017-08-23T22:01:58.611Z,9.03
2017-08-23T22:04:26.122Z,9.37
2017-08-23T22:06:53.633Z,6.97
2017-08-23T22:09:21.159Z,8.90
2017-08-23T22:11:48.676Z,8.63
2017-08-23T22:14:17.169Z,7.97
2017-08-23T22:16:44.773Z,6.90
2017-08-23T22:19:12.309Z,9.30
2017-08-23T22:21:39.812Z,8.97
2017-08-23T22:24:07.335Z,11.00
2017-08-23T22:26:34.850Z,10.27
2017-08-23T22:29:02.341Z,7.00
2017-08-23T22:31:29.868Z,8.33
2017-08-23T22:33:57.376Z,7.03
2017-08-23T22:36:24.923Z,7.10
2017-08-23T22:38:52.422Z,7.10
2017-08-23T22:41:19.969Z,7.70
2017-08-23T22:43:48.292Z,8.70
2017-08-23T22:46:15.813Z,8.23
2017-08-23T22:48:43.323Z,8.33
2017-08-23T22:51:10.840Z,6.80
2017-08-23T22:53:38.353Z,7.27
2017-08-23T22:56:05.857Z,7.73
2017-08-23T22:58:33.383Z,11.33
2017-08-23T23:01:00.886Z,8.40
2017-08-23T23:03:28.405Z,7.47
2017-08-23T23:05:55.925Z,10.90
2017-08-23T23:08:23.449Z,6.83
2017-08-23T23:10:50.949Z,7.33
2017-08-23T23:13:18.446Z,7.23
2017-08-23T23:15:45.990Z,7.17
2017-08-23T23:18:13.497Z,7.03
2017-08-23T23:20:41.017Z,9.20
2017-08-23T23:23:08.529Z,7.27
2017-08-23T23:25:36.061Z,10.03
2017-08-23T23:28:03.576Z,6.90
2017-08-23T23:30:31.090Z,6.80
2017-08-23T23:32:58.586Z,7.20
2017-08-23T23:35:26.085Z,6.53
2017-08-23T23:37:53.619Z,6.33
2017-08-23T23:40:21.120Z,6.83
2017-08-23T23:42:48.635Z,6.03
2017-08-23T23:45:16.879Z,6.30
2017-08-23T23:47:44.397Z,6.17
2017-08-23T23:50:11.907Z,6.20
2017-08-23T23:52:39.438Z,6.43
2017-08-23T23:55:06.971Z,6.43
2017-08-23T23:57:34.478Z,6.53
